sensor_id;sensor_type;location;lat;lon;timestamp;P1;durP1;ratioP1;P2;durP2;ratioP2
7571;SDS011;3827;49.928;8.548;2022-10-16T00:00:21;5.28;;;4.38;;
7571;SDS011;3827;49.928;8.548;2022-10-16T00:02:48;5.20;;;3.70;;
7571;SDS011;3827;49.928;8.548;2022-10-16T00:05:15;4.97;;;4.47;;
7571;SDS011;3827;49.928;8.548;2022-10-16T00:07:42;5.45;;;4.38;;
7571;SDS011;3827;49.928;8.548;2022-10-16T00:10:09;4.82;;;4.00;;
7571;SDS011;3827;49.928;8.548;2022-10-16T00:12:37;4.20;;;3.80;;
7571;SDS011;3827;49.928;8.548;2022-10-16T00:15:04;5.57;;;5.07;;
7571;SDS011;3827;49.928;8.548;2022-10-16T00:17:32;9.00;;;4.82;;
7571;SDS011;3827;49.928;8.548;2022-10-16T00:19:59;5.30;;;3.83;;
7571;SDS011;3827;49.928;8.548;2022-10-16T00:22:25;4.93;;;3.38;;
7571;SDS011;3827;49.928;8.548;2022-10-16T00:24:52;3.95;;;3.35;;
7571;SDS011;3827;49.928;8.548;2022-10-16T00:27:19;3.50;;;3.20;;
7571;SDS011;3827;49.928;8.548;2022-10-16T00:29:50;3.70;;;3.00;;
7571;SDS011;3827;49.928;8.548;2022-10-16T00:32:18;3.60;;;2.73;;
7571;SDS011;3827;49.928;8.548;2022-10-16T00:34:45;2.90;;;2.58;;
7571;SDS011;3827;49.928;8.548;2022-10-16T00:37:12;2.90;;;2.65;;
7571;SDS011;3827;49.928;8.548;2022-10-16T00:39:39;2.95;;;2.40;;
7571;SDS011;3827;49.928;8.548;2022-10-16T00:42:06;3.53;;;2.60;;
7571;SDS011;3827;49.928;8.548;2022-10-16T00:44:42;3.10;;;2.75;;
7571;SDS011;3827;49.928;8.548;2022-10-16T00:47:13;3.05;;;2.72;;
7571;SDS011;3827;49.928;8.548;2022-10-16T00:49:45;2.72;;;2.53;;
7571;SDS011;3827;49.928;8.548;2022-10-16T00:52:13;3.25;;;2.40;;
7571;SDS011;3827;49.928;8.548;2022-10-16T00:54:41;3.00;;;2.50;;
7571;SDS011;3827;49.928;8.548;2022-10-16T00:57:08;2.50;;;2.30;;
7571;SDS011;3827;49.928;8.548;2022-10-16T00:59:36;4.85;;;2.50;;
7571;SDS011;3827;49.928;8.548;2022-10-16T01:02:05;3.72;;;2.60;;
7571;SDS011;3827;49.928;8.548;2022-10-16T01:04:35;3.08;;;2.58;;
7571;SDS011;3827;49.928;8.548;2022-10-16T01:07:06;3.47;;;2.40;;
7571;SDS011;3827;49.928;8.548;2022-10-16T01:09:43;3.70;;;2.00;;
7571;SDS011;3827;49.928;8.548;2022-10-16T01:12:20;2.92;;;1.90;;
7571;SDS011;3827;49.928;8.548;2022-10-16T01:14:58;2.85;;;1.83;;
7571;SDS011;3827;49.928;8.548;2022-10-16T01:17:28;2.60;;;1.83;;
7571;SDS011;3827;49.928;8.548;2022-10-16T01:20:04;1.73;;;1.63;;
7571;SDS011;3827;49.928;8.548;2022-10-16T01:22:38;1.83;;;1.42;;
7571;SDS011;3827;49.928;8.548;2022-10-16T01:25:16;2.78;;;1.55;;
7571;SDS011;3827;49.928;8.548;2022-10-16T01:27:50;1.88;;;1.50;;
7571;SDS011;3827;49.928;8.548;2022-10-16T01:30:20;3.77;;;1.40;;
7571;SDS011;3827;49.928;8.548;2022-10-16T01:32:49;2.17;;;1.48;;
7571;SDS011;3827;49.928;8.548;2022-10-16T01:35:21;2.80;;;1.30;;
7571;SDS011;3827;49.928;8.548;2022-10-16T01:37:53;2.08;;;1.40;;
7571;SDS011;3827;49.928;8.548;2022-10-16T01:40:26;1.45;;;1.20;;
7571;SDS011;3827;49.928;8.548;2022-10-16T01:42:57;2.60;;;1.20;;
7571;SDS011;3827;49.928;8.548;2022-10-16T01:45:26;3.50;;;1.20;;
7571;SDS011;3827;49.928;8.548;2022-10-16T01:47:56;2.92;;;1.27;;
7571;SDS011;3827;49.928;8.548;2022-10-16T01:50:24;1.42;;;1.27;;
7571;SDS011;3827;49.928;8.548;2022-10-16T01:52:52;1.30;;;1.20;;
7571;SDS011;3827;49.928;8.548;2022-10-16T01:55:24;1.20;;;1.10;;
7571;SDS011;3827;49.928;8.548;2022-10-16T01:57:56;1.10;;;1.10;;
7571;SDS011;3827;49.928;8.548;2022-10-16T02:00:25;1.52;;;1.15;;
7571;SDS011;3827;49.928;8.548;2022-10-16T02:02:54;1.60;;;1.08;;
7571;SDS011;3827;49.928;8.548;2022-10-16T02:05:24;0.98;;;0.80;;
7571;SDS011;3827;49.928;8.548;2022-10-16T02:07:54;1.20;;;1.00;;
7571;SDS011;3827;49.928;8.548;2022-10-16T02:10:21;0.80;;;0.80;;
7571;SDS011;3827;49.928;8.548;2022-10-16T02:12:50;1.25;;;0.90;;
7571;SDS011;3827;49.928;8.548;2022-10-16T02:15:25;1.08;;;0.80;;
7571;SDS011;3827;49.928;8.548;2022-10-16T02:17:51;1.10;;;0.80;;
7571;SDS011;3827;49.928;8.548;2022-10-16T02:20:19;1.40;;;0.80;;
7571;SDS011;3827;49.928;8.548;2022-10-16T02:22:53;1.65;;;1.10;;
7571;SDS011;3827;49.928;8.548;2022-10-16T02:25:22;1.63;;;0.90;;
7571;SDS011;3827;49.928;8.548;2022-10-16T02:27:57;1.05;;;0.88;;
7571;SDS011;3827;49.928;8.548;2022-10-16T02:30:32;1.48;;;0.90;;
7571;SDS011;3827;49.928;8.548;2022-10-16T02:33:02;1.60;;;0.90;;
7571;SDS011;3827;49.928;8.548;2022-10-16T02:35:33;1.17;;;0.90;;
7571;SDS011;3827;49.928;8.548;2022-10-16T02:38:01;1.80;;;1.10;;
7571;SDS011;3827;49.928;8.548;2022-10-16T02:40:29;1.58;;;0.90;;
7571;SDS011;3827;49.928;8.548;2022-10-16T02:42:56;1.20;;;1.00;;
7571;SDS011;3827;49.928;8.548;2022-10-16T02:45:23;1.23;;;1.13;;
7571;SDS011;3827;49.928;8.548;2022-10-16T02:47:51;2.25;;;1.00;;
7571;SDS011;3827;49.928;8.548;2022-10-16T02:50:18;3.13;;;1.17;;
7571;SDS011;3827;49.928;8.548;2022-10-16T02:52:45;2.57;;;1.30;;
7571;SDS011;3827;49.928;8.548;2022-10-16T02:55:12;1.92;;;1.30;;
7571;SDS011;3827;49.928;8.548;2022-10-16T02:57:39;1.42;;;1.15;;
7571;SDS011;3827;49.928;8.548;2022-10-16T03:00:06;1.77;;;1.20;;
7571;SDS011;3827;49.928;8.548;2022-10-16T03:02:35;1.40;;;1.30;;
7571;SDS011;3827;49.928;8.548;2022-10-16T03:05:03;1.38;;;1.27;;
7571;SDS011;3827;49.928;8.548;2022-10-16T03:07:30;1.40;;;1.27;;
7571;SDS011;3827;49.928;8.548;2022-10-16T03:09:57;1.50;;;1.40;;
7571;SDS011;3827;49.928;8.548;2022-10-16T03:12:25;1.90;;;1.60;;
7571;SDS011;3827;49.928;8.548;2022-10-16T03:14:52;1.67;;;1.50;;
7571;SDS011;3827;49.928;8.548;2022-10-16T03:17:19;1.58;;;1.45;;
7571;SDS011;3827;49.928;8.548;2022-10-16T03:19:45;1.77;;;1.67;;
7571;SDS011;3827;49.928;8.548;2022-10-16T03:22:14;1.52;;;1.42;;
7571;SDS011;3827;49.928;8.548;2022-10-16T03:24:40;1.85;;;1.40;;
7571;SDS011;3827;49.928;8.548;2022-10-16T03:27:07;1.70;;;1.60;;
7571;SDS011;3827;49.928;8.548;2022-10-16T03:29:34;2.40;;;1.55;;
7571;SDS011;3827;49.928;8.548;2022-10-16T03:32:01;1.80;;;1.70;;
7571;SDS011;3827;49.928;8.548;2022-10-16T03:34:28;1.65;;;1.50;;
7571;SDS011;3827;49.928;8.548;2022-10-16T03:36:55;1.80;;;1.70;;
7571;SDS011;3827;49.928;8.548;2022-10-16T03:39:23;1.77;;;1.67;;
7571;SDS011;3827;49.928;8.548;2022-10-16T03:41:50;1.70;;;1.60;;
7571;SDS011;3827;49.928;8.548;2022-10-16T03:44:17;1.75;;;1.52;;
7571;SDS011;3827;49.928;8.548;2022-10-16T03:46:43;1.80;;;1.70;;
7571;SDS011;3827;49.928;8.548;2022-10-16T03:49:10;2.10;;;1.60;;
7571;SDS011;3827;49.928;8.548;2022-10-16T03:51:37;1.63;;;1.52;;
7571;SDS011;3827;49.928;8.548;2022-10-16T03:54:04;1.30;;;1.20;;
7571;SDS011;3827;49.928;8.548;2022-10-16T03:56:32;1.60;;;1.30;;
7571;SDS011;3827;49.928;8.548;2022-10-16T03:58:59;1.50;;;1.40;;
7571;SDS011;3827;49.928;8.548;2022-10-16T04:01:25;1.40;;;1.30;;
7571;SDS011;3827;49.928;8.548;2022-10-16T04:03:52;1.55;;;1.45;;
7571;SDS011;3827;49.928;8.548;2022-10-16T04:06:19;1.95;;;1.40;;
7571;SDS011;3827;49.928;8.548;2022-10-16T04:08:46;2.08;;;1.20;;
7571;SDS011;3827;49.928;8.548;2022-10-16T04:11:12;1.20;;;1.20;;
7571;SDS011;3827;49.928;8.548;2022-10-16T04:13:41;1.17;;;1.08;;
7571;SDS011;3827;49.928;8.548;2022-10-16T04:16:08;1.80;;;1.40;;
7571;SDS011;3827;49.928;8.548;2022-10-16T04:18:35;1.70;;;1.17;;
7571;SDS011;3827;49.928;8.548;2022-10-16T04:21:03;1.10;;;1.00;;
7571;SDS011;3827;49.928;8.548;2022-10-16T04:23:30;1.37;;;1.00;;
7571;SDS011;3827;49.928;8.548;2022-10-16T04:25:57;2.08;;;1.00;;
7571;SDS011;3827;49.928;8.548;2022-10-16T04:28:23;0.98;;;0.90;;
7571;SDS011;3827;49.928;8.548;2022-10-16T04:30:52;0.80;;;0.80;;
7571;SDS011;3827;49.928;8.548;2022-10-16T04:33:18;0.80;;;0.80;;
7571;SDS011;3827;49.928;8.548;2022-10-16T04:35:45;0.70;;;0.70;;
7571;SDS011;3827;49.928;8.548;2022-10-16T04:38:12;0.88;;;0.88;;
7571;SDS011;3827;49.928;8.548;2022-10-16T04:40:39;0.80;;;0.80;;
7571;SDS011;3827;49.928;8.548;2022-10-16T04:43:08;0.93;;;0.93;;
7571;SDS011;3827;49.928;8.548;2022-10-16T04:45:34;0.90;;;0.90;;
7571;SDS011;3827;49.928;8.548;2022-10-16T04:48:02;0.70;;;0.70;;
7571;SDS011;3827;49.928;8.548;2022-10-16T04:50:29;0.70;;;0.70;;
7571;SDS011;3827;49.928;8.548;2022-10-16T04:52:56;0.85;;;0.80;;
7571;SDS011;3827;49.928;8.548;2022-10-16T04:55:23;0.90;;;0.90;;
7571;SDS011;3827;49.928;8.548;2022-10-16T04:57:50;1.20;;;1.00;;
7571;SDS011;3827;49.928;8.548;2022-10-16T05:00:17;0.90;;;0.90;;
7571;SDS011;3827;49.928;8.548;2022-10-16T05:02:44;1.67;;;1.00;;
7571;SDS011;3827;49.928;8.548;2022-10-16T05:05:12;1.15;;;1.10;;
7571;SDS011;3827;49.928;8.548;2022-10-16T05:07:39;2.80;;;1.35;;
7571;SDS011;3827;49.928;8.548;2022-10-16T05:10:06;2.88;;;1.50;;
7571;SDS011;3827;49.928;8.548;2022-10-16T05:12:33;1.42;;;1.33;;
7571;SDS011;3827;49.928;8.548;2022-10-16T05:15:00;1.30;;;1.20;;
7571;SDS011;3827;49.928;8.548;2022-10-16T05:17:27;1.90;;;1.30;;
7571;SDS011;3827;49.928;8.548;2022-10-16T05:19:53;1.60;;;1.50;;
7571;SDS011;3827;49.928;8.548;2022-10-16T05:22:22;1.55;;;1.45;;
7571;SDS011;3827;49.928;8.548;2022-10-16T05:24:49;1.50;;;1.40;;
7571;SDS011;3827;49.928;8.548;2022-10-16T05:27:16;1.90;;;1.80;;
7571;SDS011;3827;49.928;8.548;2022-10-16T05:29:44;2.10;;;1.88;;
7571;SDS011;3827;49.928;8.548;2022-10-16T05:32:12;2.08;;;1.80;;
7571;SDS011;3827;49.928;8.548;2022-10-16T05:34:39;2.47;;;2.30;;
7571;SDS011;3827;49.928;8.548;2022-10-16T05:37:06;2.30;;;2.10;;
7571;SDS011;3827;49.928;8.548;2022-10-16T05:39:34;2.20;;;2.00;;
7571;SDS011;3827;49.928;8.548;2022-10-16T05:42:02;1.83;;;1.73;;
7571;SDS011;3827;49.928;8.548;2022-10-16T05:44:29;2.63;;;2.42;;
7571;SDS011;3827;49.928;8.548;2022-10-16T05:46:56;2.30;;;2.10;;
7571;SDS011;3827;49.928;8.548;2022-10-16T05:49:23;2.88;;;2.50;;
7571;SDS011;3827;49.928;8.548;2022-10-16T05:51:50;3.03;;;2.60;;
7571;SDS011;3827;49.928;8.548;2022-10-16T05:54:17;2.90;;;2.70;;
7571;SDS011;3827;49.928;8.548;2022-10-16T05:56:45;3.75;;;3.22;;
7571;SDS011;3827;49.928;8.548;2022-10-16T05:59:12;3.33;;;3.03;;
7571;SDS011;3827;49.928;8.548;2022-10-16T06:01:39;3.40;;;3.10;;
7571;SDS011;3827;49.928;8.548;2022-10-16T06:04:07;3.67;;;3.35;;
7571;SDS011;3827;49.928;8.548;2022-10-16T06:06:34;4.30;;;3.90;;
7571;SDS011;3827;49.928;8.548;2022-10-16T06:09:02;4.90;;;4.50;;
7571;SDS011;3827;49.928;8.548;2022-10-16T06:11:30;4.85;;;4.45;;
7571;SDS011;3827;49.928;8.548;2022-10-16T06:14:00;4.95;;;4.45;;
7571;SDS011;3827;49.928;8.548;2022-10-16T06:16:31;4.45;;;4.15;;
7571;SDS011;3827;49.928;8.548;2022-10-16T06:18:59;4.32;;;4.03;;
7571;SDS011;3827;49.928;8.548;2022-10-16T06:21:27;4.43;;;4.03;;
7571;SDS011;3827;49.928;8.548;2022-10-16T06:23:55;4.07;;;3.77;;
7571;SDS011;3827;49.928;8.548;2022-10-16T06:26:23;3.53;;;3.33;;
7571;SDS011;3827;49.928;8.548;2022-10-16T06:28:51;4.17;;;3.77;;
7571;SDS011;3827;49.928;8.548;2022-10-16T06:31:21;4.10;;;3.70;;
7571;SDS011;3827;49.928;8.548;2022-10-16T06:33:52;5.10;;;4.10;;
7571;SDS011;3827;49.928;8.548;2022-10-16T06:36:20;3.95;;;3.65;;
7571;SDS011;3827;49.928;8.548;2022-10-16T06:38:47;4.97;;;4.47;;
7571;SDS011;3827;49.928;8.548;2022-10-16T06:41:14;4.10;;;3.80;;
7571;SDS011;3827;49.928;8.548;2022-10-16T06:43:43;4.53;;;4.13;;
7571;SDS011;3827;49.928;8.548;2022-10-16T06:46:11;5.10;;;4.60;;
7571;SDS011;3827;49.928;8.548;2022-10-16T06:48:40;4.63;;;4.18;;
7571;SDS011;3827;49.928;8.548;2022-10-16T06:51:08;4.32;;;4.03;;
7571;SDS011;3827;49.928;8.548;2022-10-16T06:53:37;4.80;;;4.30;;
7571;SDS011;3827;49.928;8.548;2022-10-16T06:56:08;4.72;;;4.10;;
7571;SDS011;3827;49.928;8.548;2022-10-16T06:58:35;4.78;;;4.03;;
7571;SDS011;3827;49.928;8.548;2022-10-16T07:01:02;4.93;;;4.25;;
7571;SDS011;3827;49.928;8.548;2022-10-16T07:03:29;3.80;;;3.50;;
7571;SDS011;3827;49.928;8.548;2022-10-16T07:06:00;3.90;;;3.60;;
7571;SDS011;3827;49.928;8.548;2022-10-16T07:08:30;4.95;;;4.20;;
7571;SDS011;3827;49.928;8.548;2022-10-16T07:10:58;4.75;;;4.32;;
7571;SDS011;3827;49.928;8.548;2022-10-16T07:13:26;4.72;;;4.32;;
7571;SDS011;3827;49.928;8.548;2022-10-16T07:15:53;4.65;;;4.25;;
7571;SDS011;3827;49.928;8.548;2022-10-16T07:18:20;3.80;;;3.50;;
7571;SDS011;3827;49.928;8.548;2022-10-16T07:20:51;4.40;;;4.00;;
7571;SDS011;3827;49.928;8.548;2022-10-16T07:23:19;4.38;;;4.07;;
7571;SDS011;3827;49.928;8.548;2022-10-16T07:25:52;4.30;;;4.00;;
7571;SDS011;3827;49.928;8.548;2022-10-16T07:28:20;5.32;;;4.50;;
7571;SDS011;3827;49.928;8.548;2022-10-16T07:30:47;4.50;;;4.10;;
7571;SDS011;3827;49.928;8.548;2022-10-16T07:33:14;4.63;;;4.22;;
7571;SDS011;3827;49.928;8.548;2022-10-16T07:35:47;4.30;;;4.00;;
7571;SDS011;3827;49.928;8.548;2022-10-16T07:38:15;5.30;;;4.65;;
7571;SDS011;3827;49.928;8.548;2022-10-16T07:40:43;7.75;;;5.20;;
7571;SDS011;3827;49.928;8.548;2022-10-16T07:43:11;5.03;;;4.63;;
7571;SDS011;3827;49.928;8.548;2022-10-16T07:45:40;4.20;;;3.90;;
7571;SDS011;3827;49.928;8.548;2022-10-16T07:48:12;4.28;;;3.95;;
7571;SDS011;3827;49.928;8.548;2022-10-16T07:50:39;5.67;;;5.17;;
7571;SDS011;3827;49.928;8.548;2022-10-16T07:53:07;5.03;;;4.63;;
7571;SDS011;3827;49.928;8.548;2022-10-16T07:55:34;5.32;;;4.93;;
7571;SDS011;3827;49.928;8.548;2022-10-16T07:58:02;6.28;;;5.63;;
7571;SDS011;3827;49.928;8.548;2022-10-16T08:00:30;7.50;;;6.90;;
7571;SDS011;3827;49.928;8.548;2022-10-16T08:02:57;5.72;;;5.20;;
7571;SDS011;3827;49.928;8.548;2022-10-16T08:05:25;6.90;;;5.47;;
7571;SDS011;3827;49.928;8.548;2022-10-16T08:07:52;5.17;;;4.77;;
7571;SDS011;3827;49.928;8.548;2022-10-16T08:10:20;5.78;;;5.28;;
7571;SDS011;3827;49.928;8.548;2022-10-16T08:12:49;9.98;;;9.25;;
7571;SDS011;3827;49.928;8.548;2022-10-16T08:15:17;11.07;;;10.27;;
7571;SDS011;3827;49.928;8.548;2022-10-16T08:17:45;9.40;;;8.60;;
7571;SDS011;3827;49.928;8.548;2022-10-16T08:20:20;6.32;;;5.93;;
7571;SDS011;3827;49.928;8.548;2022-10-16T08:22:47;6.85;;;6.25;;
7571;SDS011;3827;49.928;8.548;2022-10-16T08:25:14;7.20;;;6.50;;
7571;SDS011;3827;49.928;8.548;2022-10-16T08:27:41;7.07;;;6.40;;
7571;SDS011;3827;49.928;8.548;2022-10-16T08:30:10;8.30;;;7.60;;
7571;SDS011;3827;49.928;8.548;2022-10-16T08:32:38;9.43;;;7.88;;
7571;SDS011;3827;49.928;8.548;2022-10-16T08:35:06;9.02;;;8.13;;
7571;SDS011;3827;49.928;8.548;2022-10-16T08:37:34;7.47;;;6.80;;
7571;SDS011;3827;49.928;8.548;2022-10-16T08:40:02;6.55;;;5.95;;
7571;SDS011;3827;49.928;8.548;2022-10-16T08:42:32;6.15;;;5.63;;
7571;SDS011;3827;49.928;8.548;2022-10-16T08:45:19;7.00;;;6.30;;
7571;SDS011;3827;49.928;8.548;2022-10-16T08:47:56;6.20;;;5.70;;
7571;SDS011;3827;49.928;8.548;2022-10-16T08:50:33;7.47;;;6.78;;
7571;SDS011;3827;49.928;8.548;2022-10-16T08:53:04;7.68;;;6.97;;
7571;SDS011;3827;49.928;8.548;2022-10-16T08:55:33;7.00;;;6.30;;
7571;SDS011;3827;49.928;8.548;2022-10-16T08:58:08;6.30;;;5.70;;
7571;SDS011;3827;49.928;8.548;2022-10-16T09:00:39;5.47;;;4.97;;
7571;SDS011;3827;49.928;8.548;2022-10-16T09:03:10;5.35;;;4.88;;
7571;SDS011;3827;49.928;8.548;2022-10-16T09:05:50;6.30;;;5.68;;
7571;SDS011;3827;49.928;8.548;2022-10-16T09:08:28;5.07;;;4.63;;
7571;SDS011;3827;49.928;8.548;2022-10-16T09:11:04;5.43;;;4.90;;
7571;SDS011;3827;49.928;8.548;2022-10-16T09:13:37;6.07;;;4.77;;
7571;SDS011;3827;49.928;8.548;2022-10-16T09:16:15;5.45;;;4.82;;
7571;SDS011;3827;49.928;8.548;2022-10-16T09:18:48;4.78;;;4.00;;
7571;SDS011;3827;49.928;8.548;2022-10-16T09:21:21;3.97;;;3.67;;
7571;SDS011;3827;49.928;8.548;2022-10-16T09:23:51;5.13;;;4.37;;
7571;SDS011;3827;49.928;8.548;2022-10-16T09:26:20;4.20;;;3.78;;
7571;SDS011;3827;49.928;8.548;2022-10-16T09:28:47;4.70;;;3.50;;
7571;SDS011;3827;49.928;8.548;2022-10-16T09:31:17;3.85;;;3.50;;
7571;SDS011;3827;49.928;8.548;2022-10-16T09:33:48;3.22;;;2.97;;
7571;SDS011;3827;49.928;8.548;2022-10-16T09:36:18;3.25;;;2.95;;
7571;SDS011;3827;49.928;8.548;2022-10-16T09:38:46;4.35;;;3.42;;
7571;SDS011;3827;49.928;8.548;2022-10-16T09:41:15;3.92;;;3.00;;
7571;SDS011;3827;49.928;8.548;2022-10-16T09:43:48;3.95;;;2.92;;
7571;SDS011;3827;49.928;8.548;2022-10-16T09:46:24;3.78;;;3.47;;
7571;SDS011;3827;49.928;8.548;2022-10-16T09:48:55;3.15;;;2.85;;
7571;SDS011;3827;49.928;8.548;2022-10-16T09:51:25;5.43;;;3.38;;
7571;SDS011;3827;49.928;8.548;2022-10-16T09:53:54;3.63;;;2.90;;
7571;SDS011;3827;49.928;8.548;2022-10-16T09:56:24;4.03;;;2.80;;
7571;SDS011;3827;49.928;8.548;2022-10-16T09:58:53;3.60;;;2.63;;
7571;SDS011;3827;49.928;8.548;2022-10-16T10:01:21;2.50;;;2.30;;
7571;SDS011;3827;49.928;8.548;2022-10-16T10:03:50;2.80;;;2.60;;
7571;SDS011;3827;49.928;8.548;2022-10-16T10:06:27;3.00;;;2.60;;
7571;SDS011;3827;49.928;8.548;2022-10-16T10:08:56;3.00;;;2.80;;
7571;SDS011;3827;49.928;8.548;2022-10-16T10:11:36;2.95;;;2.20;;
7571;SDS011;3827;49.928;8.548;2022-10-16T10:14:09;4.03;;;2.45;;
7571;SDS011;3827;49.928;8.548;2022-10-16T10:16:44;3.17;;;2.50;;
7571;SDS011;3827;49.928;8.548;2022-10-16T10:19:15;3.28;;;2.65;;
7571;SDS011;3827;49.928;8.548;2022-10-16T10:21:44;3.05;;;2.50;;
7571;SDS011;3827;49.928;8.548;2022-10-16T10:24:12;2.50;;;2.30;;
7571;SDS011;3827;49.928;8.548;2022-10-16T10:26:41;2.90;;;2.70;;
7571;SDS011;3827;49.928;8.548;2022-10-16T10:29:17;3.20;;;3.00;;
7571;SDS011;3827;49.928;8.548;2022-10-16T10:31:52;2.65;;;2.45;;
7571;SDS011;3827;49.928;8.548;2022-10-16T10:34:28;2.78;;;2.55;;
7571;SDS011;3827;49.928;8.548;2022-10-16T10:37:09;3.22;;;2.28;;
7571;SDS011;3827;49.928;8.548;2022-10-16T10:39:53;4.35;;;2.60;;
7571;SDS011;3827;49.928;8.548;2022-10-16T10:42:27;2.50;;;2.30;;
7571;SDS011;3827;49.928;8.548;2022-10-16T10:47:48;2.57;;;2.20;;
7571;SDS011;3827;49.928;8.548;2022-10-16T10:50:30;2.90;;;2.70;;
7571;SDS011;3827;49.928;8.548;2022-10-16T10:53:08;2.63;;;2.42;;
7571;SDS011;3827;49.928;8.548;2022-10-16T10:55:45;2.10;;;1.90;;
7571;SDS011;3827;49.928;8.548;2022-10-16T11:01:13;3.05;;;2.28;;
7571;SDS011;3827;49.928;8.548;2022-10-16T11:03:46;2.92;;;2.03;;
7571;SDS011;3827;49.928;8.548;2022-10-16T11:06:35;2.08;;;1.90;;
7571;SDS011;3827;49.928;8.548;2022-10-16T11:09:09;2.50;;;2.22;;
7571;SDS011;3827;49.928;8.548;2022-10-16T11:11:40;1.98;;;1.80;;
7571;SDS011;3827;49.928;8.548;2022-10-16T11:14:13;2.10;;;1.90;;
7571;SDS011;3827;49.928;8.548;2022-10-16T11:16:43;2.00;;;1.90;;
7571;SDS011;3827;49.928;8.548;2022-10-16T11:19:20;3.20;;;1.90;;
7571;SDS011;3827;49.928;8.548;2022-10-16T11:22:00;2.13;;;1.70;;
7571;SDS011;3827;49.928;8.548;2022-10-16T11:24:34;1.50;;;1.38;;
7571;SDS011;3827;49.928;8.548;2022-10-16T11:27:07;1.77;;;1.45;;
7571;SDS011;3827;49.928;8.548;2022-10-16T11:29:40;1.92;;;1.75;;
7571;SDS011;3827;49.928;8.548;2022-10-16T11:32:15;1.80;;;1.70;;
7571;SDS011;3827;49.928;8.548;2022-10-16T11:34:50;2.25;;;2.00;;
7571;SDS011;3827;49.928;8.548;2022-10-16T11:37:23;2.05;;;1.80;;
7571;SDS011;3827;49.928;8.548;2022-10-16T11:39:54;2.40;;;1.70;;
7571;SDS011;3827;49.928;8.548;2022-10-16T11:42:30;3.92;;;2.33;;
7571;SDS011;3827;49.928;8.548;2022-10-16T11:45:07;2.83;;;2.50;;
7571;SDS011;3827;49.928;8.548;2022-10-16T11:47:48;2.20;;;2.00;;
7571;SDS011;3827;49.928;8.548;2022-10-16T11:50:22;2.00;;;1.50;;
7571;SDS011;3827;49.928;8.548;2022-10-16T11:52:53;2.80;;;1.67;;
7571;SDS011;3827;49.928;8.548;2022-10-16T11:55:28;1.40;;;1.30;;
7571;SDS011;3827;49.928;8.548;2022-10-16T11:58:01;2.10;;;1.90;;
7571;SDS011;3827;49.928;8.548;2022-10-16T12:00:34;1.42;;;1.20;;
7571;SDS011;3827;49.928;8.548;2022-10-16T12:03:08;1.80;;;1.30;;
7571;SDS011;3827;49.928;8.548;2022-10-16T12:05:47;1.70;;;1.40;;
7571;SDS011;3827;49.928;8.548;2022-10-16T12:08:33;1.75;;;1.10;;
7571;SDS011;3827;49.928;8.548;2022-10-16T12:11:09;0.90;;;0.90;;
7571;SDS011;3827;49.928;8.548;2022-10-16T12:13:48;1.15;;;0.90;;
7571;SDS011;3827;49.928;8.548;2022-10-16T12:16:22;1.38;;;0.82;;
7571;SDS011;3827;49.928;8.548;2022-10-16T12:18:49;1.40;;;1.00;;
7571;SDS011;3827;49.928;8.548;2022-10-16T12:21:36;1.20;;;1.10;;
7571;SDS011;3827;49.928;8.548;2022-10-16T12:24:03;1.02;;;1.00;;
7571;SDS011;3827;49.928;8.548;2022-10-16T12:26:32;1.50;;;0.90;;
7571;SDS011;3827;49.928;8.548;2022-10-16T12:29:12;1.00;;;0.90;;
7571;SDS011;3827;49.928;8.548;2022-10-16T12:31:46;1.10;;;1.00;;
7571;SDS011;3827;49.928;8.548;2022-10-16T12:34:21;0.90;;;0.90;;
7571;SDS011;3827;49.928;8.548;2022-10-16T12:36:52;1.73;;;1.00;;
7571;SDS011;3827;49.928;8.548;2022-10-16T12:39:21;1.23;;;0.95;;
7571;SDS011;3827;49.928;8.548;2022-10-16T12:42:01;1.13;;;0.90;;
7571;SDS011;3827;49.928;8.548;2022-10-16T12:44:31;1.13;;;1.00;;
7571;SDS011;3827;49.928;8.548;2022-10-16T12:46:59;1.50;;;1.10;;
7571;SDS011;3827;49.928;8.548;2022-10-16T12:49:30;1.60;;;0.98;;
7571;SDS011;3827;49.928;8.548;2022-10-16T12:51:58;1.63;;;1.10;;
7571;SDS011;3827;49.928;8.548;2022-10-16T12:54:27;1.02;;;1.00;;
7571;SDS011;3827;49.928;8.548;2022-10-16T12:57:00;1.90;;;1.20;;
7571;SDS011;3827;49.928;8.548;2022-10-16T12:59:56;1.70;;;1.60;;
7571;SDS011;3827;49.928;8.548;2022-10-16T13:02:39;1.13;;;1.10;;
7571;SDS011;3827;49.928;8.548;2022-10-16T13:08:21;1.25;;;1.20;;
7571;SDS011;3827;49.928;8.548;2022-10-16T13:11:08;3.53;;;1.52;;
7571;SDS011;3827;49.928;8.548;2022-10-16T13:13:57;2.00;;;1.65;;
7571;SDS011;3827;49.928;8.548;2022-10-16T13:16:50;1.33;;;1.30;;
7571;SDS011;3827;49.928;8.548;2022-10-16T13:19:28;1.73;;;1.55;;
7571;SDS011;3827;49.928;8.548;2022-10-16T13:22:03;1.80;;;1.35;;
7571;SDS011;3827;49.928;8.548;2022-10-16T13:24:42;1.60;;;1.30;;
7571;SDS011;3827;49.928;8.548;2022-10-16T13:27:20;1.52;;;1.30;;
7571;SDS011;3827;49.928;8.548;2022-10-16T13:29:59;1.52;;;1.35;;
7571;SDS011;3827;49.928;8.548;2022-10-16T13:32:29;1.38;;;1.27;;
7571;SDS011;3827;49.928;8.548;2022-10-16T13:34:57;2.22;;;1.50;;
7571;SDS011;3827;49.928;8.548;2022-10-16T13:37:26;1.95;;;1.20;;
7571;SDS011;3827;49.928;8.548;2022-10-16T13:40:02;1.70;;;1.40;;
7571;SDS011;3827;49.928;8.548;2022-10-16T13:42:37;1.98;;;1.60;;
7571;SDS011;3827;49.928;8.548;2022-10-16T13:45:05;1.38;;;1.25;;
7571;SDS011;3827;49.928;8.548;2022-10-16T13:47:45;1.67;;;1.43;;
7571;SDS011;3827;49.928;8.548;2022-10-16T13:50:12;2.30;;;1.48;;
7571;SDS011;3827;49.928;8.548;2022-10-16T13:52:40;1.40;;;1.40;;
7571;SDS011;3827;49.928;8.548;2022-10-16T13:55:10;1.60;;;1.20;;
7571;SDS011;3827;49.928;8.548;2022-10-16T13:57:38;2.03;;;1.70;;
7571;SDS011;3827;49.928;8.548;2022-10-16T14:00:17;1.48;;;1.30;;
7571;SDS011;3827;49.928;8.548;2022-10-16T14:02:49;1.30;;;1.30;;
7571;SDS011;3827;49.928;8.548;2022-10-16T14:05:19;1.98;;;1.77;;
7571;SDS011;3827;49.928;8.548;2022-10-16T14:07:47;1.90;;;1.50;;
7571;SDS011;3827;49.928;8.548;2022-10-16T14:10:20;1.90;;;1.50;;
7571;SDS011;3827;49.928;8.548;2022-10-16T14:12:59;2.15;;;1.63;;
7571;SDS011;3827;49.928;8.548;2022-10-16T14:15:28;3.10;;;2.13;;
7571;SDS011;3827;49.928;8.548;2022-10-16T14:17:58;1.73;;;1.50;;
7571;SDS011;3827;49.928;8.548;2022-10-16T14:20:26;1.90;;;1.80;;
7571;SDS011;3827;49.928;8.548;2022-10-16T14:22:58;2.20;;;2.00;;
7571;SDS011;3827;49.928;8.548;2022-10-16T14:25:29;1.67;;;1.57;;
7571;SDS011;3827;49.928;8.548;2022-10-16T14:27:57;3.00;;;1.80;;
7571;SDS011;3827;49.928;8.548;2022-10-16T14:30:26;2.35;;;1.90;;
7571;SDS011;3827;49.928;8.548;2022-10-16T14:32:56;1.80;;;1.70;;
7571;SDS011;3827;49.928;8.548;2022-10-16T14:35:27;1.85;;;1.75;;
7571;SDS011;3827;49.928;8.548;2022-10-16T14:37:56;2.15;;;1.95;;
7571;SDS011;3827;49.928;8.548;2022-10-16T14:40:25;2.10;;;1.85;;
7571;SDS011;3827;49.928;8.548;2022-10-16T14:42:53;1.70;;;1.60;;
7571;SDS011;3827;49.928;8.548;2022-10-16T14:45:21;2.08;;;1.88;;
7571;SDS011;3827;49.928;8.548;2022-10-16T14:47:50;2.47;;;1.70;;
7571;SDS011;3827;49.928;8.548;2022-10-16T14:50:20;2.10;;;1.90;;
7571;SDS011;3827;49.928;8.548;2022-10-16T14:52:47;1.83;;;1.73;;
7571;SDS011;3827;49.928;8.548;2022-10-16T14:55:16;2.58;;;2.00;;
7571;SDS011;3827;49.928;8.548;2022-10-16T14:57:44;1.80;;;1.70;;
7571;SDS011;3827;49.928;8.548;2022-10-16T15:00:14;1.60;;;1.50;;
7571;SDS011;3827;49.928;8.548;2022-10-16T15:02:44;2.00;;;1.70;;
7571;SDS011;3827;49.928;8.548;2022-10-16T15:05:12;1.80;;;1.70;;
7571;SDS011;3827;49.928;8.548;2022-10-16T15:07:43;3.15;;;2.05;;
7571;SDS011;3827;49.928;8.548;2022-10-16T15:10:10;2.30;;;2.00;;
7571;SDS011;3827;49.928;8.548;2022-10-16T15:12:38;2.97;;;2.45;;
7571;SDS011;3827;49.928;8.548;2022-10-16T15:17:51;2.33;;;2.22;;
7571;SDS011;3827;49.928;8.548;2022-10-16T15:20:21;2.40;;;1.95;;
7571;SDS011;3827;49.928;8.548;2022-10-16T15:22:49;2.73;;;1.93;;
7571;SDS011;3827;49.928;8.548;2022-10-16T15:25:27;3.67;;;2.22;;
7571;SDS011;3827;49.928;8.548;2022-10-16T15:27:57;3.38;;;1.85;;
7571;SDS011;3827;49.928;8.548;2022-10-16T15:30:24;1.85;;;1.70;;
7571;SDS011;3827;49.928;8.548;2022-10-16T15:32:51;4.15;;;2.10;;
7571;SDS011;3827;49.928;8.548;2022-10-16T15:35:18;2.03;;;1.75;;
7571;SDS011;3827;49.928;8.548;2022-10-16T15:37:46;2.23;;;2.00;;
7571;SDS011;3827;49.928;8.548;2022-10-16T15:40:14;1.70;;;1.60;;
7571;SDS011;3827;49.928;8.548;2022-10-16T15:42:42;2.40;;;1.92;;
7571;SDS011;3827;49.928;8.548;2022-10-16T15:45:09;2.22;;;2.05;;